Quimby, Maine
Current Conditions -  °F | °C
As of 3:10 AM on Thursday 18 Dec 2014 (Local Time) from KFVE Reporting Station
Light Snow Light Snow  
Wind Chill: 14°   Ceiling: 1300
Heat Index: 25°   Visibility: 1mi
Dew Point: 24°   Wind: 12mph
Humidity: 96%   Direction: 10°N
Pressure: 29.65"   Gusts: NA
Location:  46.96°N, 68.61°W
Report Text: KFVE 180810Z AUTO 01010KT 1SM -SN BR VV013 M04/M04 A2965 RMK AO2 P0001 T10391044
Loading
Personal Weather Stations






























Interactive Weather Map New forecast layout! Learn more

10-Day Weather Forecast

Advertisements
Track Severe Weather on mobile